createdAt,value
2023-02-12T00:01:11.880Z,29.80
2023-02-12T00:03:40.765Z,30.20
2023-02-12T00:06:09.963Z,35.47
2023-02-12T00:08:38.813Z,27.93
2023-02-12T00:11:11.720Z,31.17
2023-02-12T00:13:40.352Z,41.70
2023-02-12T00:16:12.922Z,25.40
2023-02-12T00:18:41.125Z,32.00
2023-02-12T00:21:09.742Z,33.87
2023-02-12T00:23:41.085Z,32.20
2023-02-12T00:26:10.441Z,28.60
2023-02-12T00:28:40.292Z,26.67
2023-02-12T00:31:10.655Z,34.57
2023-02-12T00:33:38.814Z,24.67
2023-02-12T00:36:09.240Z,28.63
2023-02-12T00:38:37.526Z,25.37
2023-02-12T00:41:05.765Z,37.20
2023-02-12T00:43:33.767Z,26.90
2023-02-12T00:46:02.429Z,27.87
2023-02-12T00:48:34.493Z,29.20
2023-02-12T00:51:02.676Z,30.47
2023-02-12T00:53:31.220Z,30.63
2023-02-12T00:56:00.936Z,28.63
2023-02-12T00:58:29.371Z,28.40
2023-02-12T01:00:57.677Z,28.17
2023-02-12T01:03:25.790Z,32.50
2023-02-12T01:05:55.573Z,26.60
2023-02-12T01:08:24.183Z,24.90
2023-02-12T01:10:57.779Z,34.93
2023-02-12T01:13:26.580Z,30.30
2023-02-12T01:16:04.389Z,31.07
2023-02-12T01:18:32.459Z,27.30
2023-02-12T01:21:01.945Z,36.00
2023-02-12T01:23:30.220Z,39.37
2023-02-12T01:26:00.455Z,26.87
2023-02-12T01:28:28.458Z,20.33
2023-02-12T01:30:56.565Z,35.37
2023-02-12T01:33:24.633Z,31.50
2023-02-12T01:35:52.880Z,27.83
2023-02-12T01:38:22.307Z,32.27
2023-02-12T01:40:50.313Z,30.67
2023-02-12T01:43:18.272Z,26.90
2023-02-12T01:45:52.852Z,28.20
2023-02-12T01:48:26.711Z,27.20
2023-02-12T01:50:55.585Z,25.50
2023-02-12T01:53:30.477Z,23.90
2023-02-12T01:56:00.350Z,30.87
2023-02-12T01:58:31.768Z,21.97
2023-02-12T02:01:01.586Z,35.73
2023-02-12T02:03:30.334Z,28.33
2023-02-12T02:06:02.285Z,30.13
2023-02-12T02:08:32.054Z,25.57
2023-02-12T02:11:00.104Z,26.50
2023-02-12T02:13:45.833Z,24.50
2023-02-12T02:16:21.902Z,35.93
2023-02-12T02:18:54.729Z,24.63
2023-02-12T02:22:03.616Z,28.50
2023-02-12T02:25:02.549Z,26.87
2023-02-12T02:27:41.685Z,32.17
2023-02-12T02:30:45.065Z,31.13
2023-02-12T02:33:23.101Z,25.30
2023-02-12T02:36:01.122Z,29.27
2023-02-12T02:38:35.020Z,31.60
2023-02-12T02:41:07.702Z,32.83
2023-02-12T02:43:39.916Z,27.33
2023-02-12T02:46:13.154Z,27.37
2023-02-12T02:48:46.272Z,31.50
2023-02-12T02:51:18.239Z,26.70
2023-02-12T02:53:50.030Z,28.13
2023-02-12T02:56:22.284Z,33.80
2023-02-12T02:58:55.324Z,29.10
2023-02-12T03:01:30.601Z,29.23
2023-02-12T03:04:03.610Z,25.93
2023-02-12T03:06:38.746Z,28.03
2023-02-12T03:09:13.323Z,28.90
2023-02-12T03:11:42.385Z,28.43
2023-02-12T03:14:17.625Z,26.57
2023-02-12T03:16:52.566Z,30.23
2023-02-12T03:19:23.871Z,25.03
2023-02-12T03:21:56.113Z,24.40
2023-02-12T03:24:29.738Z,26.90
2023-02-12T03:27:04.026Z,31.77
2023-02-12T03:29:32.622Z,25.90
2023-02-12T03:32:13.442Z,25.30
2023-02-12T03:34:50.160Z,35.10
2023-02-12T03:37:23.394Z,28.37
2023-02-12T03:39:58.152Z,25.37
2023-02-12T03:42:36.532Z,26.37
2023-02-12T03:45:18.716Z,31.57
2023-02-12T03:47:53.695Z,29.87
2023-02-12T03:50:28.817Z,25.27
2023-02-12T03:52:56.906Z,23.97
2023-02-12T03:55:25.363Z,24.03
2023-02-12T03:57:57.060Z,23.97
2023-02-12T04:00:26.486Z,32.43
2023-02-12T04:02:56.343Z,26.63
2023-02-12T04:05:26.450Z,35.63
2023-02-12T04:07:56.394Z,24.90
2023-02-12T04:10:32.235Z,34.43
2023-02-12T04:13:12.245Z,24.40
2023-02-12T04:16:03.001Z,28.13
2023-02-12T04:18:40.264Z,33.53
2023-02-12T04:21:13.388Z,23.10
2023-02-12T04:23:53.424Z,27.63
2023-02-12T04:26:33.502Z,27.47
2023-02-12T04:29:11.545Z,28.93
2023-02-12T04:31:45.400Z,27.50
2023-02-12T04:34:19.204Z,18.97
2023-02-12T04:36:55.066Z,27.67
2023-02-12T04:39:26.610Z,28.30
2023-02-12T04:41:55.073Z,29.50
2023-02-12T04:44:26.387Z,32.40
2023-02-12T04:46:54.733Z,24.57
2023-02-12T04:49:24.345Z,30.53
2023-02-12T04:51:53.468Z,25.67
2023-02-12T04:54:22.881Z,25.40
2023-02-12T04:56:51.776Z,33.83
2023-02-12T04:59:19.854Z,22.93
2023-02-12T05:01:49.712Z,34.83
2023-02-12T05:04:18.629Z,32.27
2023-02-12T05:06:48.554Z,21.10
2023-02-12T05:09:18.205Z,24.57
2023-02-12T05:11:46.235Z,25.77
2023-02-12T05:14:14.362Z,23.77
2023-02-12T05:16:42.622Z,32.57
2023-02-12T05:19:10.739Z,26.57
2023-02-12T05:21:39.286Z,28.97
2023-02-12T05:24:10.078Z,25.03
2023-02-12T05:26:38.165Z,27.70
2023-02-12T05:29:06.110Z,22.67
2023-02-12T05:31:34.469Z,28.47
2023-02-12T05:34:02.730Z,34.03
2023-02-12T05:36:30.754Z,29.90
2023-02-12T05:39:00.152Z,32.83
2023-02-12T05:41:34.620Z,23.50
2023-02-12T05:44:03.152Z,22.17
2023-02-12T05:46:31.343Z,32.73
2023-02-12T05:48:59.320Z,27.70
2023-02-12T05:51:28.279Z,22.23
2023-02-12T05:54:00.268Z,26.67
2023-02-12T05:56:31.711Z,31.03
2023-02-12T05:59:03.357Z,23.00
2023-02-12T06:01:33.771Z,28.33
2023-02-12T06:04:02.622Z,25.70
2023-02-12T06:06:31.907Z,30.33
2023-02-12T06:09:00.386Z,27.30
2023-02-12T06:11:30.109Z,22.90
2023-02-12T06:13:58.079Z,23.43
2023-02-12T06:16:28.322Z,31.93
2023-02-12T06:18:57.455Z,29.53
2023-02-12T06:21:27.118Z,34.70
2023-02-12T06:23:55.420Z,25.37
2023-02-12T06:26:24.551Z,30.47
2023-02-12T06:28:54.202Z,26.80
2023-02-12T06:31:24.762Z,20.50
2023-02-12T06:33:55.534Z,29.50
2023-02-12T06:36:24.387Z,26.77
2023-02-12T06:38:52.802Z,25.27
2023-02-12T06:41:21.678Z,31.90
2023-02-12T06:43:49.743Z,26.17
2023-02-12T06:46:19.199Z,29.27
2023-02-12T06:48:47.189Z,25.37
2023-02-12T06:51:19.538Z,25.17
2023-02-12T06:53:47.535Z,25.03
2023-02-12T06:56:16.011Z,29.60
2023-02-12T06:58:46.085Z,20.77
2023-02-12T07:01:17.991Z,28.20
2023-02-12T07:03:50.096Z,22.17
2023-02-12T07:06:18.524Z,29.07
2023-02-12T07:08:46.752Z,26.63
2023-02-12T07:11:15.300Z,25.23
2023-02-12T07:13:44.026Z,28.67
2023-02-12T07:16:14.591Z,29.30
2023-02-12T07:18:44.379Z,38.73
2023-02-12T07:21:15.193Z,26.27
2023-02-12T07:23:43.760Z,23.80
2023-02-12T07:26:13.904Z,22.20
2023-02-12T07:28:42.745Z,26.47
2023-02-12T07:31:13.256Z,28.67
2023-02-12T07:33:42.440Z,26.90
2023-02-12T07:36:13.688Z,27.93
2023-02-12T07:38:42.500Z,28.93
2023-02-12T07:41:13.216Z,19.43
2023-02-12T07:43:42.033Z,24.17
2023-02-12T07:46:11.974Z,26.20
2023-02-12T07:48:40.490Z,25.73
2023-02-12T07:51:09.872Z,27.50
2023-02-12T07:53:40.187Z,25.30
2023-02-12T07:56:13.198Z,32.07
2023-02-12T07:58:42.822Z,25.33
2023-02-12T08:01:19.740Z,31.13
2023-02-12T08:03:48.724Z,19.47
2023-02-12T08:06:19.184Z,27.33
2023-02-12T08:08:48.691Z,26.63
2023-02-12T08:11:18.733Z,29.27
2023-02-12T08:13:47.107Z,26.87
2023-02-12T08:16:17.173Z,24.67
2023-02-12T08:18:45.544Z,22.13
2023-02-12T08:21:15.279Z,26.93
2023-02-12T08:23:43.775Z,23.03
2023-02-12T08:26:14.562Z,28.70
2023-02-12T08:28:44.544Z,32.20
2023-02-12T08:31:15.220Z,29.43
2023-02-12T08:33:43.396Z,21.83
2023-02-12T08:36:14.563Z,24.90
2023-02-12T08:38:43.669Z,26.27
2023-02-12T08:41:15.017Z,21.80
2023-02-12T08:43:43.819Z,22.70
2023-02-12T08:46:14.341Z,27.43
2023-02-12T08:48:43.574Z,26.97
2023-02-12T08:51:13.660Z,26.23
2023-02-12T08:53:43.509Z,30.47
2023-02-12T08:56:14.526Z,28.53
2023-02-12T08:58:43.062Z,31.80
2023-02-12T09:01:13.354Z,35.37
2023-02-12T09:03:41.344Z,22.90
2023-02-12T09:06:10.669Z,30.47
2023-02-12T09:08:39.691Z,30.60
2023-02-12T09:11:08.687Z,24.90
2023-02-12T09:13:38.134Z,34.80
2023-02-12T09:16:07.015Z,22.70
2023-02-12T09:18:35.644Z,23.87
2023-02-12T09:21:04.676Z,29.13
2023-02-12T09:23:32.996Z,26.70
2023-02-12T09:26:01.112Z,29.57
2023-02-12T09:28:29.227Z,32.47
2023-02-12T09:30:58.726Z,27.33
2023-02-12T09:33:26.773Z,33.20
2023-02-12T09:36:03.410Z,23.93
2023-02-12T09:38:31.507Z,27.77
2023-02-12T09:41:21.054Z,29.67
2023-02-12T09:43:54.568Z,29.23
2023-02-12T09:46:29.953Z,28.53
2023-02-12T09:49:08.575Z,29.53
2023-02-12T09:51:37.484Z,23.47
2023-02-12T09:54:08.448Z,28.27
2023-02-12T09:56:39.458Z,27.77
2023-02-12T09:59:09.785Z,25.90
2023-02-12T10:01:39.228Z,29.00
2023-02-12T10:04:07.569Z,26.73
2023-02-12T10:06:42.591Z,28.13
2023-02-12T10:09:24.971Z,26.03
2023-02-12T10:12:01.645Z,28.10
2023-02-12T10:14:53.760Z,33.03
2023-02-12T10:17:34.305Z,30.60
2023-02-12T10:20:32.765Z,25.77
2023-02-12T10:23:15.419Z,23.23
2023-02-12T10:25:51.629Z,29.97
2023-02-12T10:28:26.950Z,30.60
2023-02-12T10:30:58.747Z,37.23
2023-02-12T10:33:32.166Z,23.23
2023-02-12T10:36:05.773Z,24.53
2023-02-12T10:38:39.432Z,22.73
2023-02-12T10:41:07.445Z,24.37
2023-02-12T10:43:35.596Z,24.27
2023-02-12T10:46:03.670Z,29.53
2023-02-12T10:48:37.975Z,33.50
2023-02-12T10:51:21.027Z,26.97
2023-02-12T10:53:49.451Z,24.80
2023-02-12T10:56:20.267Z,26.80
2023-02-12T10:58:57.295Z,36.07
2023-02-12T11:01:28.276Z,26.60
2023-02-12T11:03:59.568Z,27.70
2023-02-12T11:06:29.605Z,22.50
2023-02-12T11:08:58.038Z,23.80
2023-02-12T11:11:30.648Z,29.77
2023-02-12T11:14:01.085Z,21.30
2023-02-12T11:16:31.310Z,21.27
2023-02-12T11:19:02.974Z,22.13
2023-02-12T11:21:31.140Z,23.00
2023-02-12T11:24:02.537Z,20.47
2023-02-12T11:26:33.526Z,18.30
2023-02-12T11:29:06.982Z,23.07
2023-02-12T11:31:36.872Z,23.83
2023-02-12T11:34:16.568Z,22.77
2023-02-12T11:36:46.421Z,20.00
2023-02-12T11:39:22.409Z,21.60
2023-02-12T11:41:54.410Z,23.90
2023-02-12T11:44:26.262Z,22.43
2023-02-12T11:46:57.219Z,19.23
2023-02-12T11:49:31.062Z,22.00
2023-02-12T11:52:01.215Z,19.10
2023-02-12T11:54:32.435Z,24.80
2023-02-12T11:57:00.509Z,20.00
2023-02-12T11:59:36.410Z,19.30
2023-02-12T12:02:18.020Z,19.97
2023-02-12T12:04:50.511Z,17.47
2023-02-12T12:07:23.188Z,15.90
2023-02-12T12:09:59.985Z,18.30
2023-02-12T12:12:37.123Z,20.43
2023-02-12T12:15:34.132Z,18.73
2023-02-12T12:18:28.195Z,19.63
2023-02-12T12:21:09.021Z,19.73
2023-02-12T12:23:41.415Z,17.93
2023-02-12T12:26:15.703Z,21.83
2023-02-12T12:28:48.751Z,18.70
2023-02-12T12:31:20.158Z,17.03
2023-02-12T12:33:51.347Z,17.70
2023-02-12T12:36:51.846Z,21.40
2023-02-12T12:39:29.613Z,22.10
2023-02-12T12:42:27.985Z,21.60
2023-02-12T12:45:18.146Z,22.53
2023-02-12T12:47:59.670Z,25.27
2023-02-12T12:50:44.170Z,19.97
2023-02-12T12:53:29.175Z,19.07
2023-02-12T12:56:30.132Z,22.23
2023-02-12T12:59:21.858Z,21.60
2023-02-12T13:02:44.094Z,24.63
2023-02-12T13:05:57.393Z,18.10
2023-02-12T13:08:42.140Z,20.53
2023-02-12T13:11:24.110Z,23.60
2023-02-12T13:13:59.999Z,21.43
2023-02-12T13:16:32.098Z,26.53
2023-02-12T13:19:07.613Z,24.20
2023-02-12T13:21:45.342Z,23.57
2023-02-12T13:24:24.547Z,27.00
2023-02-12T13:26:56.522Z,17.60
2023-02-12T13:29:27.883Z,18.03
2023-02-12T13:31:59.509Z,22.83
2023-02-12T13:34:30.605Z,22.27
2023-02-12T13:37:01.604Z,24.50
2023-02-12T13:39:35.662Z,19.87
2023-02-12T13:42:18.005Z,22.87
2023-02-12T13:44:56.523Z,23.30
2023-02-12T13:47:34.766Z,24.93
2023-02-12T13:50:06.952Z,20.90
2023-02-12T13:52:41.160Z,22.17
2023-02-12T13:55:24.456Z,14.17
2023-02-12T13:58:29.424Z,23.70
2023-02-12T14:01:00.191Z,15.03
2023-02-12T14:03:29.691Z,21.40
2023-02-12T14:06:16.101Z,24.23
2023-02-12T14:08:46.034Z,21.33
2023-02-12T14:11:17.904Z,18.80
2023-02-12T14:13:53.814Z,20.03
2023-02-12T14:16:40.459Z,18.97
2023-02-12T14:19:45.747Z,22.60
2023-02-12T14:22:15.571Z,18.80
2023-02-12T14:24:52.254Z,18.33
2023-02-12T14:27:43.116Z,25.63
2023-02-12T14:30:33.573Z,21.47
2023-02-12T14:33:22.399Z,20.23
2023-02-12T14:36:13.666Z,16.30
2023-02-12T14:39:06.538Z,18.53
2023-02-12T14:41:41.731Z,17.20
2023-02-12T14:44:45.526Z,17.40
2023-02-12T14:47:17.296Z,16.63
2023-02-12T14:49:49.314Z,18.07
2023-02-12T14:52:21.858Z,20.50
2023-02-12T14:54:52.138Z,15.77
2023-02-12T14:57:26.115Z,17.10
2023-02-12T14:59:59.047Z,17.40
2023-02-12T15:02:29.469Z,20.27
2023-02-12T15:05:02.474Z,23.47
2023-02-12T15:07:36.999Z,16.60
2023-02-12T15:10:10.607Z,19.37
2023-02-12T15:12:43.624Z,14.93
2023-02-12T15:15:22.632Z,19.63
2023-02-12T15:17:59.007Z,18.20
2023-02-12T15:20:34.494Z,15.97
2023-02-12T15:23:03.041Z,17.20
2023-02-12T15:25:33.178Z,21.67
2023-02-12T15:28:05.158Z,20.00
2023-02-12T15:30:37.529Z,18.13
2023-02-12T15:33:08.234Z,18.60
2023-02-12T15:35:38.783Z,25.90
2023-02-12T15:38:08.486Z,20.10
2023-02-12T15:40:36.535Z,18.77
2023-02-12T15:43:07.292Z,19.10
2023-02-12T15:45:39.762Z,27.93
2023-02-12T15:48:13.883Z,28.33
2023-02-12T15:50:52.732Z,21.17
2023-02-12T15:53:21.423Z,19.40
2023-02-12T15:55:51.016Z,20.53
2023-02-12T15:58:23.648Z,21.60
2023-02-12T16:00:53.966Z,19.17
2023-02-12T16:03:25.568Z,19.63
2023-02-12T16:05:56.565Z,23.87
2023-02-12T16:08:25.813Z,22.83
2023-02-12T16:10:55.659Z,20.27
2023-02-12T16:13:29.944Z,19.23
2023-02-12T16:16:20.302Z,22.53
2023-02-12T16:19:07.056Z,19.83
2023-02-12T16:21:38.612Z,22.97
2023-02-12T16:24:20.298Z,24.07
2023-02-12T16:26:49.106Z,21.07
2023-02-12T16:29:18.370Z,21.80
2023-02-12T16:32:00.129Z,25.07
2023-02-12T16:34:31.348Z,22.43
2023-02-12T16:36:59.702Z,26.20
2023-02-12T16:40:10.291Z,23.27
2023-02-12T16:42:38.575Z,20.20
2023-02-12T16:45:38.364Z,18.30
2023-02-12T16:48:17.114Z,22.10
2023-02-12T16:50:49.106Z,24.90
2023-02-12T16:53:35.932Z,18.33
2023-02-12T16:56:06.341Z,24.17
2023-02-12T16:58:34.404Z,15.30
2023-02-12T17:01:05.384Z,22.83
2023-02-12T17:03:35.578Z,24.07
2023-02-12T17:06:03.597Z,17.73
2023-02-12T17:08:31.605Z,20.30
2023-02-12T17:10:59.635Z,20.60
2023-02-12T17:13:27.599Z,16.80
2023-02-12T17:15:58.710Z,21.20
2023-02-12T17:18:27.354Z,25.87
2023-02-12T17:21:00.254Z,22.57
2023-02-12T17:23:29.075Z,19.07
2023-02-12T17:25:57.563Z,25.73
2023-02-12T17:28:26.084Z,24.27
2023-02-12T17:30:54.677Z,18.00
2023-02-12T17:33:23.383Z,22.00
2023-02-12T17:35:51.420Z,20.20
2023-02-12T17:38:20.804Z,20.30
2023-02-12T17:40:48.843Z,25.77
2023-02-12T17:43:16.854Z,18.60
2023-02-12T17:45:44.909Z,22.80
2023-02-12T17:48:13.911Z,21.47
2023-02-12T17:50:43.024Z,24.57
2023-02-12T17:53:12.963Z,17.40
2023-02-12T17:55:42.496Z,26.67
2023-02-12T17:58:10.628Z,17.83
2023-02-12T18:00:38.795Z,21.63
2023-02-12T18:03:06.798Z,21.07
2023-02-12T18:05:34.802Z,18.93
2023-02-12T18:08:03.523Z,21.03
2023-02-12T18:10:31.597Z,24.60
2023-02-12T18:13:00.954Z,30.43
2023-02-12T18:15:29.038Z,28.57
2023-02-12T18:17:57.067Z,24.30
2023-02-12T18:20:25.065Z,28.77
2023-02-12T18:22:53.088Z,26.63
2023-02-12T18:25:21.090Z,22.83
2023-02-12T18:27:49.136Z,24.53
2023-02-12T18:30:19.150Z,23.13
2023-02-12T18:32:47.159Z,24.60
2023-02-12T18:35:15.856Z,25.90
2023-02-12T18:37:43.935Z,30.10
2023-02-12T18:40:12.940Z,23.10
2023-02-12T18:42:41.012Z,25.00
2023-02-12T18:45:09.599Z,18.33
2023-02-12T18:47:38.941Z,19.43
2023-02-12T18:50:08.221Z,22.53
2023-02-12T18:52:37.331Z,18.43
2023-02-12T18:55:06.481Z,22.20
2023-02-12T18:57:34.506Z,22.70
2023-02-12T19:00:02.777Z,25.83
2023-02-12T19:02:30.848Z,22.77
2023-02-12T19:05:00.648Z,26.30
2023-02-12T19:07:28.686Z,19.57
2023-02-12T19:09:56.793Z,23.13
2023-02-12T19:12:25.925Z,22.47
2023-02-12T19:14:54.003Z,26.37
2023-02-12T19:17:22.045Z,24.33
2023-02-12T19:19:50.836Z,19.83
2023-02-12T19:22:20.380Z,24.47
2023-02-12T19:24:51.437Z,22.07
2023-02-12T19:27:19.486Z,25.57
2023-02-12T19:29:47.512Z,20.27
2023-02-12T19:32:15.567Z,18.30
2023-02-12T19:34:43.586Z,21.43
2023-02-12T19:37:13.695Z,25.50
2023-02-12T19:39:43.372Z,27.77
2023-02-12T19:42:12.608Z,17.97
2023-02-12T19:44:43.608Z,15.13
2023-02-12T19:47:11.821Z,20.90
2023-02-12T19:49:41.260Z,21.03
2023-02-12T19:52:09.705Z,29.40
2023-02-12T19:54:37.736Z,25.53
2023-02-12T19:57:09.170Z,23.33
2023-02-12T19:59:37.679Z,22.70
2023-02-12T20:02:05.714Z,20.33
2023-02-12T20:04:33.865Z,28.13
2023-02-12T20:07:02.002Z,19.53
2023-02-12T20:09:30.020Z,25.50
2023-02-12T20:11:58.270Z,25.63
2023-02-12T20:14:27.644Z,22.37
2023-02-12T20:16:58.352Z,20.90
2023-02-12T20:19:29.973Z,24.63
2023-02-12T20:21:58.552Z,20.07
2023-02-12T20:24:28.355Z,27.10
2023-02-12T20:26:56.854Z,23.13
2023-02-12T20:29:25.576Z,29.83
2023-02-12T20:31:55.082Z,30.63
2023-02-12T20:34:23.274Z,22.20
2023-02-12T20:36:51.486Z,18.57
2023-02-12T20:39:21.110Z,22.37
2023-02-12T20:41:49.869Z,23.43
2023-02-12T20:44:20.550Z,26.03
2023-02-12T20:46:52.421Z,17.90
2023-02-12T20:49:25.588Z,18.30
2023-02-12T20:51:54.374Z,19.60
2023-02-12T20:54:22.625Z,31.43
2023-02-12T20:56:51.459Z,25.67
2023-02-12T20:59:20.210Z,19.70
2023-02-12T21:01:48.342Z,22.87
2023-02-12T21:04:19.487Z,20.33
2023-02-12T21:06:49.271Z,28.60
2023-02-12T21:09:18.650Z,26.30
2023-02-12T21:11:47.033Z,15.47
2023-02-12T21:14:24.283Z,18.40
2023-02-12T21:16:53.674Z,17.63
2023-02-12T21:19:21.887Z,24.13
2023-02-12T21:21:51.569Z,17.37
2023-02-12T21:24:22.031Z,18.30
2023-02-12T21:26:50.578Z,18.10
2023-02-12T21:29:19.625Z,16.37
2023-02-12T21:31:49.648Z,11.13
2023-02-12T21:34:20.831Z,16.20
2023-02-12T21:36:50.234Z,15.10
2023-02-12T21:39:24.525Z,21.10
2023-02-12T21:41:54.390Z,14.53
2023-02-12T21:44:23.364Z,13.33
2023-02-12T21:46:51.547Z,14.10
2023-02-12T21:49:28.827Z,17.50
2023-02-12T21:51:59.189Z,13.50
2023-02-12T21:54:29.457Z,11.80
2023-02-12T21:56:57.881Z,10.77
2023-02-12T21:59:26.725Z,16.63
2023-02-12T22:01:58.288Z,22.83
2023-02-12T22:04:27.354Z,12.67
2023-02-12T22:06:56.438Z,13.30
2023-02-12T22:09:25.016Z,8.97
2023-02-12T22:11:54.508Z,11.00
2023-02-12T22:14:23.438Z,15.20
2023-02-12T22:16:51.961Z,8.37
2023-02-12T22:19:20.239Z,10.70
2023-02-12T22:21:51.973Z,8.40
2023-02-12T22:24:20.538Z,9.90
2023-02-12T22:26:48.683Z,8.73
2023-02-12T22:29:18.420Z,9.67
2023-02-12T22:31:48.034Z,10.63
2023-02-12T22:34:18.565Z,9.50
2023-02-12T22:36:47.136Z,9.50
2023-02-12T22:39:17.391Z,12.93
2023-02-12T22:41:45.789Z,6.70
2023-02-12T22:44:15.116Z,5.43
2023-02-12T22:46:44.645Z,6.53
2023-02-12T22:49:12.800Z,7.90
2023-02-12T22:51:41.231Z,8.67
2023-02-12T22:54:13.164Z,9.60
2023-02-12T22:56:41.183Z,9.50
2023-02-12T22:59:10.783Z,8.00
2023-02-12T23:01:39.707Z,9.47
2023-02-12T23:04:12.939Z,7.80
2023-02-12T23:06:40.990Z,8.63
2023-02-12T23:09:12.270Z,9.60
2023-02-12T23:11:40.631Z,11.33
2023-02-12T23:14:08.595Z,6.83
2023-02-12T23:16:36.567Z,6.70
2023-02-12T23:19:04.557Z,8.30
2023-02-12T23:21:33.965Z,8.20
2023-02-12T23:24:01.940Z,9.30
2023-02-12T23:26:30.794Z,5.90
2023-02-12T23:28:59.857Z,11.60
2023-02-12T23:31:27.973Z,6.47
2023-02-12T23:33:56.009Z,7.47
2023-02-12T23:36:24.000Z,7.97
2023-02-12T23:38:53.326Z,9.10
2023-02-12T23:41:21.343Z,8.33
2023-02-12T23:43:49.305Z,8.87
2023-02-12T23:46:17.312Z,9.17
2023-02-12T23:48:45.460Z,6.20
2023-02-12T23:51:13.454Z,10.27
2023-02-12T23:53:41.459Z,9.40
2023-02-12T23:56:10.794Z,11.40
2023-02-12T23:58:38.822Z,7.40
